createdAt,value
2023-04-09T00:00:41.157Z,27.30
2023-04-09T00:03:44.433Z,34.85
2023-04-09T00:06:47.718Z,29.48
2023-04-09T00:09:50.926Z,31.33
2023-04-09T00:12:54.162Z,29.80
2023-04-09T00:15:57.390Z,26.77
2023-04-09T00:19:00.624Z,24.23
2023-04-09T00:22:03.733Z,47.15
2023-04-09T00:25:07.437Z,47.63
2023-04-09T00:28:10.621Z,37.10
2023-04-09T00:31:14.067Z,16.83
2023-04-09T00:34:17.465Z,13.70
2023-04-09T00:37:20.639Z,16.25
2023-04-09T00:40:23.887Z,10.52
2023-04-09T00:43:27.695Z,13.38
2023-04-09T00:46:33.169Z,7.70
2023-04-09T00:49:36.457Z,10.10
2023-04-09T00:52:39.731Z,8.35
2023-04-09T00:55:42.958Z,5.57
2023-04-09T00:58:46.287Z,16.20
2023-04-09T01:01:49.461Z,7.13
2023-04-09T01:04:52.812Z,4.82
2023-04-09T01:08:07.341Z,6.63
2023-04-09T01:11:47.330Z,5.25
2023-04-09T01:15:00.274Z,5.65
2023-04-09T01:18:12.321Z,4.55
2023-04-09T01:21:19.073Z,5.30
2023-04-09T01:24:43.346Z,6.47
2023-04-09T01:28:17.594Z,5.60
2023-04-09T01:31:27.214Z,5.43
2023-04-09T01:34:31.871Z,5.18
2023-04-09T01:37:36.951Z,6.32
2023-04-09T01:40:40.452Z,7.18
2023-04-09T01:43:44.801Z,9.50
2023-04-09T01:46:49.706Z,4.07
2023-04-09T01:52:55.943Z,3.80
2023-04-09T01:56:04.269Z,4.25
2023-04-09T01:59:07.537Z,5.38
2023-04-09T02:02:20.744Z,3.67
2023-04-09T02:05:27.861Z,5.15
2023-04-09T02:08:32.144Z,5.05
2023-04-09T02:11:39.518Z,6.07
2023-04-09T02:14:43.530Z,4.88
2023-04-09T02:17:47.141Z,7.22
2023-04-09T02:20:50.381Z,6.65
2023-04-09T02:23:53.497Z,12.18
2023-04-09T02:26:56.695Z,5.40
2023-04-09T02:29:59.964Z,5.78
2023-04-09T02:33:03.232Z,3.67
2023-04-09T02:36:07.381Z,6.57
2023-04-09T02:39:10.542Z,6.30
2023-04-09T02:42:13.712Z,5.25
2023-04-09T02:45:17.143Z,7.15
2023-04-09T02:48:20.365Z,5.20
2023-04-09T02:51:23.673Z,5.65
2023-04-09T02:54:26.905Z,5.13
2023-04-09T02:57:30.565Z,4.50
2023-04-09T03:00:33.931Z,9.02
2023-04-09T03:03:39.868Z,10.48
2023-04-09T03:06:43.160Z,7.70
2023-04-09T03:09:46.564Z,5.47
2023-04-09T03:12:49.758Z,5.05
2023-04-09T03:15:56.309Z,9.90
2023-04-09T03:18:59.539Z,6.43
2023-04-09T03:22:02.773Z,7.82
2023-04-09T03:25:07.785Z,21.55
2023-04-09T03:28:11.917Z,6.65
2023-04-09T03:31:21.933Z,6.47
2023-04-09T03:34:25.303Z,6.68
2023-04-09T03:37:31.961Z,5.72
2023-04-09T03:40:37.164Z,7.82
2023-04-09T03:43:40.761Z,8.43
2023-04-09T03:46:44.895Z,5.25
2023-04-09T03:49:51.715Z,6.93
2023-04-09T03:53:00.389Z,4.38
2023-04-09T03:56:04.538Z,7.68
2023-04-09T03:59:08.592Z,5.03
2023-04-09T04:02:16.135Z,4.18
2023-04-09T04:05:26.590Z,3.47
2023-04-09T04:08:33.453Z,7.45
2023-04-09T04:11:36.910Z,4.45
2023-04-09T04:14:40.174Z,7.95
2023-04-09T04:17:54.370Z,4.90
2023-04-09T04:21:17.055Z,5.90
2023-04-09T04:24:26.491Z,15.60
2023-04-09T04:27:30.108Z,8.85
2023-04-09T04:30:36.688Z,6.20
2023-04-09T04:33:44.124Z,7.78
2023-04-09T04:36:50.514Z,6.32
2023-04-09T04:39:55.006Z,7.60
2023-04-09T04:42:58.540Z,8.73
2023-04-09T04:46:05.207Z,7.63
2023-04-09T04:49:09.464Z,8.07
2023-04-09T04:52:20.109Z,5.18
2023-04-09T04:55:27.263Z,6.97
2023-04-09T04:58:31.517Z,12.18
2023-04-09T05:01:37.655Z,11.05
2023-04-09T05:04:45.110Z,5.97
2023-04-09T05:07:51.413Z,5.57
2023-04-09T05:10:56.783Z,7.72
2023-04-09T05:14:07.492Z,11.55
2023-04-09T05:17:10.828Z,4.50
2023-04-09T05:20:22.049Z,5.20
2023-04-09T05:23:38.449Z,9.70
2023-04-09T05:26:42.220Z,4.88
2023-04-09T05:29:45.364Z,6.00
2023-04-09T05:32:48.799Z,10.05
2023-04-09T05:35:53.163Z,6.72
2023-04-09T05:38:56.540Z,5.13
2023-04-09T05:41:59.760Z,9.07
2023-04-09T05:45:10.810Z,6.88
2023-04-09T05:48:21.772Z,9.13
2023-04-09T05:51:26.912Z,7.50
2023-04-09T05:54:33.132Z,4.90
2023-04-09T05:57:37.605Z,6.97
2023-04-09T06:00:40.863Z,3.67
2023-04-09T06:03:45.465Z,6.55
2023-04-09T06:06:48.839Z,9.52
2023-04-09T06:09:52.203Z,6.43
2023-04-09T06:12:55.471Z,4.03
2023-04-09T06:15:58.742Z,3.92
2023-04-09T06:19:01.973Z,3.75
2023-04-09T06:22:05.311Z,5.78
2023-04-09T06:25:08.863Z,6.45
2023-04-09T06:28:15.161Z,13.43
2023-04-09T06:31:18.457Z,3.35
2023-04-09T06:34:27.705Z,5.75
2023-04-09T06:37:30.987Z,6.20
2023-04-09T06:40:34.121Z,7.30
2023-04-09T06:43:38.194Z,5.05
2023-04-09T06:46:41.680Z,8.67
2023-04-09T06:49:45.078Z,9.90
2023-04-09T06:52:48.540Z,4.50
2023-04-09T06:55:52.045Z,9.07
2023-04-09T06:58:55.316Z,4.30
2023-04-09T07:01:58.892Z,11.00
2023-04-09T07:05:05.505Z,6.88
2023-04-09T07:08:08.727Z,4.65
2023-04-09T07:11:12.226Z,5.95
2023-04-09T07:14:15.345Z,8.43
2023-04-09T07:17:18.510Z,7.43
2023-04-09T07:20:21.985Z,3.25
2023-04-09T07:23:25.291Z,5.57
2023-04-09T07:26:29.965Z,6.22
2023-04-09T07:29:33.221Z,4.25
2023-04-09T07:32:36.581Z,5.03
2023-04-09T07:35:40.029Z,5.78
2023-04-09T07:38:43.292Z,4.82
2023-04-09T07:41:47.968Z,2.60
2023-04-09T07:44:51.292Z,9.18
2023-04-09T07:47:57.314Z,2.47
2023-04-09T07:51:01.092Z,4.32
2023-04-09T07:54:04.396Z,5.70
2023-04-09T07:57:08.181Z,4.45
2023-04-09T08:00:11.979Z,4.63
2023-04-09T08:03:20.260Z,3.58
2023-04-09T08:06:23.818Z,3.47
2023-04-09T08:09:27.027Z,8.50
2023-04-09T08:12:30.351Z,8.88
2023-04-09T08:15:33.907Z,4.55
2023-04-09T08:18:37.137Z,3.35
2023-04-09T08:21:45.130Z,2.63
2023-04-09T08:24:52.797Z,3.08
2023-04-09T08:27:56.146Z,2.65
2023-04-09T08:30:59.329Z,1.95
2023-04-09T08:34:02.665Z,5.47
2023-04-09T08:37:08.770Z,2.53
2023-04-09T08:40:12.736Z,3.78
2023-04-09T08:43:17.489Z,2.53
2023-04-09T08:46:21.243Z,3.40
2023-04-09T08:49:24.753Z,2.97
2023-04-09T08:52:35.574Z,1.73
2023-04-09T08:55:39.133Z,1.70
2023-04-09T08:58:46.771Z,1.70
2023-04-09T09:01:54.985Z,7.00
2023-04-09T09:05:01.661Z,4.07
2023-04-09T09:08:05.259Z,32.55
2023-04-09T09:11:08.583Z,2.33
2023-04-09T09:14:14.381Z,3.10
2023-04-09T09:17:18.863Z,7.90
2023-04-09T09:20:22.941Z,2.08
2023-04-09T09:23:38.088Z,3.10
2023-04-09T09:29:45.753Z,2.03
2023-04-09T09:33:05.554Z,4.83
2023-04-09T09:36:12.343Z,4.72
2023-04-09T09:39:20.781Z,3.47
2023-04-09T09:42:24.209Z,3.75
2023-04-09T09:45:27.542Z,2.95
2023-04-09T09:48:32.172Z,1.85
2023-04-09T09:51:38.192Z,2.20
2023-04-09T09:54:44.684Z,2.10
2023-04-09T09:57:51.275Z,3.67
2023-04-09T10:00:58.212Z,2.08
2023-04-09T10:04:03.528Z,5.43
2023-04-09T10:07:08.863Z,1.65
2023-04-09T10:10:12.322Z,3.13
2023-04-09T10:13:26.295Z,4.60
2023-04-09T10:16:29.915Z,1.73
2023-04-09T10:19:39.729Z,3.78
2023-04-09T10:22:47.906Z,2.00
2023-04-09T10:25:51.475Z,1.80
2023-04-09T10:29:09.238Z,1.42
2023-04-09T10:32:12.822Z,3.03
2023-04-09T10:35:30.001Z,6.45
2023-04-09T10:38:39.232Z,3.78
2023-04-09T10:41:50.435Z,2.70
2023-04-09T10:45:11.206Z,3.65
2023-04-09T10:48:14.936Z,5.38
2023-04-09T10:51:21.300Z,2.47
2023-04-09T10:54:38.112Z,2.00
2023-04-09T10:57:44.397Z,5.57
2023-04-09T11:00:49.951Z,3.55
2023-04-09T11:04:17.526Z,7.88
2023-04-09T11:07:22.989Z,3.08
2023-04-09T11:10:26.492Z,1.63
2023-04-09T11:13:31.101Z,2.13
2023-04-09T11:16:34.568Z,5.47
2023-04-09T11:19:37.956Z,3.65
2023-04-09T11:22:41.211Z,1.50
2023-04-09T11:25:49.673Z,2.83
2023-04-09T11:29:01.164Z,2.05
2023-04-09T11:32:05.963Z,5.07
2023-04-09T11:35:17.519Z,2.08
2023-04-09T11:38:20.950Z,6.75
2023-04-09T11:41:37.741Z,4.22
2023-04-09T11:44:41.751Z,2.03
2023-04-09T11:47:46.486Z,2.67
2023-04-09T11:50:49.912Z,1.50
2023-04-09T11:53:53.114Z,2.58
2023-04-09T11:56:56.856Z,1.90
2023-04-09T12:00:01.222Z,3.50
2023-04-09T12:03:08.906Z,18.13
2023-04-09T12:06:12.197Z,1.45
2023-04-09T12:09:16.838Z,1.85
2023-04-09T12:12:21.616Z,4.85
2023-04-09T12:15:26.208Z,2.25
2023-04-09T12:18:29.719Z,1.80
2023-04-09T12:21:56.620Z,1.42
2023-04-09T12:24:59.918Z,7.78
2023-04-09T12:28:04.112Z,2.35
2023-04-09T12:31:12.098Z,3.00
2023-04-09T12:34:15.566Z,1.20
2023-04-09T12:37:18.742Z,3.05
2023-04-09T12:40:23.287Z,2.33
2023-04-09T12:43:27.249Z,1.92
2023-04-09T12:46:33.010Z,3.97
2023-04-09T12:49:36.794Z,11.45
2023-04-09T12:52:40.499Z,13.10
2023-04-09T12:55:46.868Z,9.48
2023-04-09T12:58:50.293Z,6.43
2023-04-09T13:01:56.998Z,4.88
2023-04-09T13:05:00.807Z,4.60
2023-04-09T13:08:04.210Z,2.05
2023-04-09T13:11:07.953Z,2.55
2023-04-09T13:14:15.012Z,2.03
2023-04-09T13:17:18.901Z,2.10
2023-04-09T13:20:22.227Z,1.70
2023-04-09T13:23:25.573Z,2.80
2023-04-09T13:26:28.911Z,1.55
2023-04-09T13:29:33.270Z,1.98
2023-04-09T13:32:37.227Z,1.98
2023-04-09T13:35:40.420Z,2.55
2023-04-09T13:38:43.681Z,2.55
2023-04-09T13:41:47.311Z,2.67
2023-04-09T13:44:50.599Z,1.60
2023-04-09T13:47:54.553Z,1.48
2023-04-09T13:50:58.396Z,2.10
2023-04-09T13:54:02.793Z,2.95
2023-04-09T13:57:07.875Z,3.58
2023-04-09T14:00:12.160Z,7.57
2023-04-09T14:03:15.673Z,1.60
2023-04-09T14:06:18.931Z,3.40
2023-04-09T14:09:22.253Z,1.45
2023-04-09T14:12:25.521Z,2.63
2023-04-09T14:15:28.764Z,1.60
2023-04-09T14:18:32.021Z,2.65
2023-04-09T14:21:35.251Z,5.72
2023-04-09T14:24:40.542Z,2.25
2023-04-09T14:27:43.871Z,2.35
2023-04-09T14:30:47.190Z,2.80
2023-04-09T14:33:50.380Z,2.25
2023-04-09T14:36:53.777Z,2.03
2023-04-09T14:39:56.939Z,1.55
2023-04-09T14:43:01.758Z,3.38
2023-04-09T14:46:07.025Z,5.60
2023-04-09T14:49:10.651Z,13.68
2023-04-09T14:52:13.901Z,2.67
2023-04-09T14:55:17.093Z,2.53
2023-04-09T14:58:20.368Z,3.10
2023-04-09T15:01:23.560Z,2.50
2023-04-09T15:04:27.186Z,5.53
2023-04-09T15:07:30.594Z,4.80
2023-04-09T15:10:33.871Z,3.97
2023-04-09T15:13:37.116Z,1.75
2023-04-09T15:16:40.506Z,1.65
2023-04-09T15:19:43.688Z,3.00
2023-04-09T15:22:47.006Z,4.55
2023-04-09T15:25:50.192Z,5.43
2023-04-09T15:28:54.383Z,6.43
2023-04-09T15:31:57.839Z,3.10
2023-04-09T15:35:01.592Z,6.57
2023-04-09T15:38:05.292Z,4.63
2023-04-09T15:41:08.917Z,3.38
2023-04-09T15:44:12.245Z,2.65
2023-04-09T15:47:15.681Z,3.42
2023-04-09T15:50:18.909Z,2.38
2023-04-09T15:53:24.518Z,8.50
2023-04-09T15:56:27.744Z,3.67
2023-04-09T15:59:30.953Z,3.42
2023-04-09T16:02:34.280Z,9.23
2023-04-09T16:05:37.460Z,8.13
2023-04-09T16:08:40.908Z,6.25
2023-04-09T16:11:44.156Z,2.22
2023-04-09T16:14:47.398Z,3.33
2023-04-09T16:17:50.685Z,5.55
2023-04-09T16:20:57.313Z,4.47
2023-04-09T16:24:02.035Z,5.68
2023-04-09T16:27:05.449Z,6.35
2023-04-09T16:30:09.003Z,9.45
2023-04-09T16:33:12.309Z,11.27
2023-04-09T16:36:15.527Z,14.57
2023-04-09T16:39:20.256Z,9.52
2023-04-09T16:42:23.515Z,12.88
2023-04-09T16:45:26.901Z,11.75
2023-04-09T16:48:30.159Z,12.27
2023-04-09T16:51:33.432Z,11.60
2023-04-09T16:54:36.592Z,13.85
2023-04-09T16:57:42.192Z,12.35
2023-04-09T17:00:47.398Z,12.60
2023-04-09T17:03:51.882Z,10.23
2023-04-09T17:06:55.252Z,10.60
2023-04-09T17:09:58.554Z,13.25
2023-04-09T17:13:01.996Z,9.98
2023-04-09T17:16:05.471Z,14.15
2023-04-09T17:19:09.580Z,11.07
2023-04-09T17:22:14.605Z,12.32
2023-04-09T17:25:18.488Z,11.18
2023-04-09T17:28:21.898Z,10.85
2023-04-09T17:31:25.427Z,10.85
2023-04-09T17:34:28.927Z,9.82
2023-04-09T17:37:32.431Z,16.38
2023-04-09T17:40:35.590Z,11.48
2023-04-09T17:43:41.474Z,10.48
2023-04-09T17:46:44.941Z,14.90
2023-04-09T17:49:48.195Z,10.00
2023-04-09T17:52:51.379Z,10.60
2023-04-09T17:55:54.531Z,10.52
2023-04-09T17:58:57.827Z,11.43
2023-04-09T18:02:01.680Z,11.63
2023-04-09T18:05:05.546Z,10.35
2023-04-09T18:08:09.016Z,10.70
2023-04-09T18:11:13.583Z,12.90
2023-04-09T18:14:16.896Z,8.27
2023-04-09T18:17:20.152Z,9.27
2023-04-09T18:20:23.339Z,8.02
2023-04-09T18:23:27.653Z,12.18
2023-04-09T18:26:31.504Z,11.30
2023-04-09T18:29:34.783Z,7.00
2023-04-09T18:32:38.319Z,7.90
2023-04-09T18:35:41.505Z,7.25
2023-04-09T18:38:44.658Z,7.18
2023-04-09T18:41:48.002Z,9.35
2023-04-09T18:44:51.465Z,6.03
2023-04-09T18:47:54.850Z,7.05
2023-04-09T18:51:01.114Z,6.93
2023-04-09T18:54:04.410Z,6.35
2023-04-09T18:57:08.105Z,8.10
2023-04-09T19:00:12.035Z,11.27
2023-04-09T19:03:20.041Z,14.75
2023-04-09T19:06:24.026Z,13.88
2023-04-09T19:09:27.731Z,14.47
2023-04-09T19:12:31.103Z,10.57
2023-04-09T19:15:34.306Z,12.00
2023-04-09T19:18:38.325Z,14.15
2023-04-09T19:21:41.871Z,7.07
2023-04-09T19:24:45.563Z,4.68
2023-04-09T19:27:48.792Z,8.15
2023-04-09T19:30:53.194Z,5.78
2023-04-09T19:33:56.542Z,8.23
2023-04-09T19:36:59.608Z,8.25
2023-04-09T19:40:05.085Z,10.57
2023-04-09T19:43:08.446Z,8.30
2023-04-09T19:46:11.580Z,9.93
2023-04-09T19:49:15.885Z,13.07
2023-04-09T19:52:19.132Z,11.07
2023-04-09T19:55:25.678Z,16.15
2023-04-09T19:58:28.872Z,7.63
2023-04-09T20:01:32.209Z,15.75
2023-04-09T20:04:35.451Z,13.57
2023-04-09T20:07:39.086Z,13.20
2023-04-09T20:10:43.489Z,11.60
2023-04-09T20:13:48.306Z,9.93
2023-04-09T20:16:51.610Z,8.35
2023-04-09T20:19:56.351Z,9.15
2023-04-09T20:22:59.689Z,6.82
2023-04-09T20:26:03.452Z,9.60
2023-04-09T20:29:06.999Z,7.60
2023-04-09T20:32:10.348Z,9.02
2023-04-09T20:35:14.937Z,9.65
2023-04-09T20:38:21.087Z,11.68
2023-04-09T20:41:24.518Z,10.73
2023-04-09T20:44:28.866Z,12.45
2023-04-09T20:47:32.280Z,12.30
2023-04-09T20:50:35.482Z,10.02
2023-04-09T20:53:39.418Z,10.50
2023-04-09T20:56:42.583Z,7.70
2023-04-09T20:59:45.985Z,10.63
2023-04-09T21:02:49.257Z,12.55
2023-04-09T21:05:52.966Z,15.10
2023-04-09T21:08:57.426Z,13.60
2023-04-09T21:12:05.261Z,6.60
2023-04-09T21:15:09.025Z,15.50
2023-04-09T21:18:12.249Z,14.40
2023-04-09T21:21:15.514Z,8.88
2023-04-09T21:24:19.047Z,9.20
2023-04-09T21:27:22.280Z,9.63
2023-04-09T21:30:25.473Z,9.38
2023-04-09T21:33:30.042Z,11.98
2023-04-09T21:36:38.159Z,7.50
2023-04-09T21:39:41.365Z,10.13
2023-04-09T21:42:44.541Z,11.23
2023-04-09T21:45:47.852Z,7.05
2023-04-09T21:48:51.243Z,5.53
2023-04-09T21:51:56.354Z,7.35
2023-04-09T21:58:02.391Z,5.30
2023-04-09T22:01:07.432Z,8.18
2023-04-09T22:04:14.292Z,6.95
2023-04-09T22:07:17.530Z,9.30
2023-04-09T22:10:21.211Z,11.23
2023-04-09T22:13:24.371Z,13.75
2023-04-09T22:16:27.809Z,11.98
2023-04-09T22:19:32.224Z,11.00
2023-04-09T22:22:35.355Z,13.27
2023-04-09T22:25:38.492Z,7.88
2023-04-09T22:28:41.634Z,6.55
2023-04-09T22:31:45.202Z,7.18
2023-04-09T22:34:48.388Z,6.70
2023-04-09T22:37:51.615Z,6.65
2023-04-09T22:40:55.261Z,6.88
2023-04-09T22:43:59.063Z,4.47
2023-04-09T22:47:02.194Z,4.35
2023-04-09T22:50:06.994Z,6.45
2023-04-09T22:53:10.193Z,6.13
2023-04-09T22:56:14.019Z,6.55
2023-04-09T22:59:17.485Z,7.35
2023-04-09T23:02:20.900Z,8.50
2023-04-09T23:05:24.249Z,6.45
2023-04-09T23:08:27.913Z,11.07
2023-04-09T23:11:31.321Z,9.00
2023-04-09T23:14:34.880Z,7.30
2023-04-09T23:17:38.681Z,5.22
2023-04-09T23:20:41.865Z,5.15
2023-04-09T23:23:45.135Z,7.50
2023-04-09T23:26:48.681Z,5.70
2023-04-09T23:29:51.899Z,6.13
2023-04-09T23:32:57.469Z,7.07
2023-04-09T23:36:01.349Z,7.57
2023-04-09T23:39:04.864Z,6.70
2023-04-09T23:42:08.098Z,6.20
2023-04-09T23:45:12.372Z,9.02
2023-04-09T23:48:15.758Z,18.08
2023-04-09T23:51:20.086Z,20.17
2023-04-09T23:54:24.052Z,21.80
2023-04-09T23:57:28.510Z,14.33
